sensor_id;sensor_type;location;lat;lon;timestamp;temperature;humidity
24217;DHT22;12356;49.386;8.688;2022-12-07T00:02:14;6.10;56.50
24217;DHT22;12356;49.386;8.688;2022-12-07T00:04:45;6.10;56.80
24217;DHT22;12356;49.386;8.688;2022-12-07T00:07:16;6.00;56.80
24217;DHT22;12356;49.386;8.688;2022-12-07T00:09:46;5.90;58.00
24217;DHT22;12356;49.386;8.688;2022-12-07T00:12:17;6.00;59.10
24217;DHT22;12356;49.386;8.688;2022-12-07T00:14:48;5.90;59.30
24217;DHT22;12356;49.386;8.688;2022-12-07T00:17:18;5.90;60.00
24217;DHT22;12356;49.386;8.688;2022-12-07T00:19:49;6.00;60.30
24217;DHT22;12356;49.386;8.688;2022-12-07T00:22:19;5.90;60.30
24217;DHT22;12356;49.386;8.688;2022-12-07T00:24:50;5.90;61.40
24217;DHT22;12356;49.386;8.688;2022-12-07T00:27:21;6.00;61.90
24217;DHT22;12356;49.386;8.688;2022-12-07T00:29:51;6.10;61.20
24217;DHT22;12356;49.386;8.688;2022-12-07T00:32:22;6.10;61.20
24217;DHT22;12356;49.386;8.688;2022-12-07T00:34:52;6.20;60.90
24217;DHT22;12356;49.386;8.688;2022-12-07T00:37:23;6.20;60.80
24217;DHT22;12356;49.386;8.688;2022-12-07T00:39:54;6.30;60.80
24217;DHT22;12356;49.386;8.688;2022-12-07T00:42:24;6.30;60.50
24217;DHT22;12356;49.386;8.688;2022-12-07T00:44:55;6.30;60.20
24217;DHT22;12356;49.386;8.688;2022-12-07T00:47:25;6.30;60.20
24217;DHT22;12356;49.386;8.688;2022-12-07T00:49:56;6.20;60.10
24217;DHT22;12356;49.386;8.688;2022-12-07T00:52:27;6.20;60.90
24217;DHT22;12356;49.386;8.688;2022-12-07T00:54:57;6.30;61.20
24217;DHT22;12356;49.386;8.688;2022-12-07T00:57:30;6.30;61.30
24217;DHT22;12356;49.386;8.688;2022-12-07T01:00:01;6.30;61.10
24217;DHT22;12356;49.386;8.688;2022-12-07T01:02:32;6.30;60.90
24217;DHT22;12356;49.386;8.688;2022-12-07T01:05:03;6.30;60.60
24217;DHT22;12356;49.386;8.688;2022-12-07T01:07:33;6.30;60.50
24217;DHT22;12356;49.386;8.688;2022-12-07T01:10:04;6.30;60.20
24217;DHT22;12356;49.386;8.688;2022-12-07T01:12:35;6.40;60.20
24217;DHT22;12356;49.386;8.688;2022-12-07T01:15:07;6.30;60.40
24217;DHT22;12356;49.386;8.688;2022-12-07T01:17:38;6.40;60.50
24217;DHT22;12356;49.386;8.688;2022-12-07T01:20:09;6.40;60.40
24217;DHT22;12356;49.386;8.688;2022-12-07T01:22:40;6.40;60.40
24217;DHT22;12356;49.386;8.688;2022-12-07T01:25:11;6.40;60.80
24217;DHT22;12356;49.386;8.688;2022-12-07T01:27:42;6.30;60.50
24217;DHT22;12356;49.386;8.688;2022-12-07T01:30:13;6.40;60.60
24217;DHT22;12356;49.386;8.688;2022-12-07T01:32:44;6.40;60.80
24217;DHT22;12356;49.386;8.688;2022-12-07T01:35:14;6.50;60.90
24217;DHT22;12356;49.386;8.688;2022-12-07T01:37:45;6.50;60.80
24217;DHT22;12356;49.386;8.688;2022-12-07T01:40:16;6.50;60.60
24217;DHT22;12356;49.386;8.688;2022-12-07T01:42:46;6.50;60.50
24217;DHT22;12356;49.386;8.688;2022-12-07T01:45:40;6.40;60.00
24217;DHT22;12356;49.386;8.688;2022-12-07T01:48:14;6.30;60.00
24217;DHT22;12356;49.386;8.688;2022-12-07T01:50:48;6.30;60.10
24217;DHT22;12356;49.386;8.688;2022-12-07T01:53:21;6.30;60.30
24217;DHT22;12356;49.386;8.688;2022-12-07T01:55:56;6.20;60.40
24217;DHT22;12356;49.386;8.688;2022-12-07T01:58:28;6.20;60.80
24217;DHT22;12356;49.386;8.688;2022-12-07T02:00:59;6.20;60.30
24217;DHT22;12356;49.386;8.688;2022-12-07T02:03:39;6.20;60.50
24217;DHT22;12356;49.386;8.688;2022-12-07T02:06:13;6.20;60.50
24217;DHT22;12356;49.386;8.688;2022-12-07T02:08:47;6.30;60.40
24217;DHT22;12356;49.386;8.688;2022-12-07T02:11:18;6.30;60.00
24217;DHT22;12356;49.386;8.688;2022-12-07T02:13:49;6.40;59.80
24217;DHT22;12356;49.386;8.688;2022-12-07T02:22:18;6.50;58.00
24217;DHT22;12356;49.386;8.688;2022-12-07T02:24:56;6.40;57.30
24217;DHT22;12356;49.386;8.688;2022-12-07T02:30:21;6.30;57.50
24217;DHT22;12356;49.386;8.688;2022-12-07T02:38:14;6.20;57.60
24217;DHT22;12356;49.386;8.688;2022-12-07T02:43:41;6.20;56.90
24217;DHT22;12356;49.386;8.688;2022-12-07T02:46:15;6.20;57.40
24217;DHT22;12356;49.386;8.688;2022-12-07T02:48:47;6.20;57.60
24217;DHT22;12356;49.386;8.688;2022-12-07T02:51:20;6.10;57.40
24217;DHT22;12356;49.386;8.688;2022-12-07T02:53:51;6.10;57.50
24217;DHT22;12356;49.386;8.688;2022-12-07T02:56:39;6.00;57.50
24217;DHT22;12356;49.386;8.688;2022-12-07T03:10:54;6.20;55.80
24217;DHT22;12356;49.386;8.688;2022-12-07T03:16:17;6.10;56.40
24217;DHT22;12356;49.386;8.688;2022-12-07T03:19:18;6.10;56.50
24217;DHT22;12356;49.386;8.688;2022-12-07T03:21:55;6.20;56.80
24217;DHT22;12356;49.386;8.688;2022-12-07T03:24:31;6.10;56.90
24217;DHT22;12356;49.386;8.688;2022-12-07T03:27:11;6.10;57.20
24217;DHT22;12356;49.386;8.688;2022-12-07T03:32:31;6.00;58.10
24217;DHT22;12356;49.386;8.688;2022-12-07T03:35:10;6.10;58.00
24217;DHT22;12356;49.386;8.688;2022-12-07T03:37:56;6.10;57.90
24217;DHT22;12356;49.386;8.688;2022-12-07T03:40:37;6.10;58.00
24217;DHT22;12356;49.386;8.688;2022-12-07T03:43:10;6.10;57.30
24217;DHT22;12356;49.386;8.688;2022-12-07T03:46:04;6.10;57.70
24217;DHT22;12356;49.386;8.688;2022-12-07T03:48:46;6.00;57.30
24217;DHT22;12356;49.386;8.688;2022-12-07T03:51:25;6.00;57.50
24217;DHT22;12356;49.386;8.688;2022-12-07T03:54:13;5.90;57.70
24217;DHT22;12356;49.386;8.688;2022-12-07T03:56:46;5.90;58.20
24217;DHT22;12356;49.386;8.688;2022-12-07T03:59:18;6.00;58.70
24217;DHT22;12356;49.386;8.688;2022-12-07T04:01:54;6.00;58.00
24217;DHT22;12356;49.386;8.688;2022-12-07T04:04:25;5.90;58.20
24217;DHT22;12356;49.386;8.688;2022-12-07T04:06:56;5.90;58.20
24217;DHT22;12356;49.386;8.688;2022-12-07T04:09:27;5.90;58.40
24217;DHT22;12356;49.386;8.688;2022-12-07T04:11:58;5.90;58.60
24217;DHT22;12356;49.386;8.688;2022-12-07T04:14:28;5.80;59.00
24217;DHT22;12356;49.386;8.688;2022-12-07T04:16:59;5.90;59.00
24217;DHT22;12356;49.386;8.688;2022-12-07T04:19:33;5.80;58.90
24217;DHT22;12356;49.386;8.688;2022-12-07T04:22:05;5.80;59.40
24217;DHT22;12356;49.386;8.688;2022-12-07T04:24:36;5.80;59.70
24217;DHT22;12356;49.386;8.688;2022-12-07T04:27:07;5.90;60.20
24217;DHT22;12356;49.386;8.688;2022-12-07T04:29:37;5.90;59.30
24217;DHT22;12356;49.386;8.688;2022-12-07T04:32:08;5.90;58.90
24217;DHT22;12356;49.386;8.688;2022-12-07T04:34:39;5.90;59.10
24217;DHT22;12356;49.386;8.688;2022-12-07T04:37:09;5.90;59.10
24217;DHT22;12356;49.386;8.688;2022-12-07T04:39:40;5.90;57.80
24217;DHT22;12356;49.386;8.688;2022-12-07T04:42:12;5.90;58.00
24217;DHT22;12356;49.386;8.688;2022-12-07T04:44:43;5.90;57.90
24217;DHT22;12356;49.386;8.688;2022-12-07T04:47:14;5.90;58.80
24217;DHT22;12356;49.386;8.688;2022-12-07T04:49:45;5.90;57.90
24217;DHT22;12356;49.386;8.688;2022-12-07T04:52:16;5.90;57.90
24217;DHT22;12356;49.386;8.688;2022-12-07T04:54:47;5.90;58.00
24217;DHT22;12356;49.386;8.688;2022-12-07T04:57:17;5.90;57.40
24217;DHT22;12356;49.386;8.688;2022-12-07T04:59:48;5.90;56.70
24217;DHT22;12356;49.386;8.688;2022-12-07T05:02:19;5.90;56.60
24217;DHT22;12356;49.386;8.688;2022-12-07T05:04:49;6.00;56.20
24217;DHT22;12356;49.386;8.688;2022-12-07T05:07:20;6.00;55.30
24217;DHT22;12356;49.386;8.688;2022-12-07T05:09:50;5.90;54.60
24217;DHT22;12356;49.386;8.688;2022-12-07T05:12:21;6.00;55.00
24217;DHT22;12356;49.386;8.688;2022-12-07T05:14:52;6.00;56.20
24217;DHT22;12356;49.386;8.688;2022-12-07T05:17:22;6.10;55.90
24217;DHT22;12356;49.386;8.688;2022-12-07T05:19:53;6.20;55.80
24217;DHT22;12356;49.386;8.688;2022-12-07T05:22:23;6.20;55.00
24217;DHT22;12356;49.386;8.688;2022-12-07T05:24:58;6.20;55.00
24217;DHT22;12356;49.386;8.688;2022-12-07T05:27:28;6.20;55.20
24217;DHT22;12356;49.386;8.688;2022-12-07T05:29:59;6.20;54.70
24217;DHT22;12356;49.386;8.688;2022-12-07T05:32:30;6.10;54.70
24217;DHT22;12356;49.386;8.688;2022-12-07T05:35:00;6.00;55.10
24217;DHT22;12356;49.386;8.688;2022-12-07T05:37:31;6.00;55.50
24217;DHT22;12356;49.386;8.688;2022-12-07T05:40:03;6.00;56.80
24217;DHT22;12356;49.386;8.688;2022-12-07T05:42:34;6.00;56.80
24217;DHT22;12356;49.386;8.688;2022-12-07T05:45:05;5.90;55.80
24217;DHT22;12356;49.386;8.688;2022-12-07T05:47:36;6.00;55.50
24217;DHT22;12356;49.386;8.688;2022-12-07T05:50:07;6.00;55.70
24217;DHT22;12356;49.386;8.688;2022-12-07T05:52:38;6.00;55.90
24217;DHT22;12356;49.386;8.688;2022-12-07T05:55:08;5.90;55.20
24217;DHT22;12356;49.386;8.688;2022-12-07T05:57:39;5.90;54.40
24217;DHT22;12356;49.386;8.688;2022-12-07T06:00:10;5.90;54.80
24217;DHT22;12356;49.386;8.688;2022-12-07T06:02:41;5.90;54.20
24217;DHT22;12356;49.386;8.688;2022-12-07T06:05:11;6.00;54.30
24217;DHT22;12356;49.386;8.688;2022-12-07T06:07:42;5.90;54.30
24217;DHT22;12356;49.386;8.688;2022-12-07T06:10:13;6.00;54.70
24217;DHT22;12356;49.386;8.688;2022-12-07T06:12:44;6.00;53.70
24217;DHT22;12356;49.386;8.688;2022-12-07T06:15:16;6.00;53.70
24217;DHT22;12356;49.386;8.688;2022-12-07T06:17:47;6.00;53.00
24217;DHT22;12356;49.386;8.688;2022-12-07T06:20:18;6.10;53.50
24217;DHT22;12356;49.386;8.688;2022-12-07T06:22:48;6.20;53.40
24217;DHT22;12356;49.386;8.688;2022-12-07T06:25:19;6.10;53.30
24217;DHT22;12356;49.386;8.688;2022-12-07T06:27:50;6.10;52.50
24217;DHT22;12356;49.386;8.688;2022-12-07T06:30:20;6.00;52.70
24217;DHT22;12356;49.386;8.688;2022-12-07T06:32:51;6.00;52.90
24217;DHT22;12356;49.386;8.688;2022-12-07T06:35:21;6.00;53.50
24217;DHT22;12356;49.386;8.688;2022-12-07T06:37:52;6.00;53.50
24217;DHT22;12356;49.386;8.688;2022-12-07T06:40:22;5.90;53.50
24217;DHT22;12356;49.386;8.688;2022-12-07T06:42:53;5.90;53.90
24217;DHT22;12356;49.386;8.688;2022-12-07T06:45:24;6.00;54.20
24217;DHT22;12356;49.386;8.688;2022-12-07T06:47:54;6.00;53.80
24217;DHT22;12356;49.386;8.688;2022-12-07T06:50:25;5.90;53.80
24217;DHT22;12356;49.386;8.688;2022-12-07T06:52:56;5.90;53.80
24217;DHT22;12356;49.386;8.688;2022-12-07T06:55:27;5.90;53.70
24217;DHT22;12356;49.386;8.688;2022-12-07T06:57:57;5.90;54.20
24217;DHT22;12356;49.386;8.688;2022-12-07T07:00:28;5.90;55.30
24217;DHT22;12356;49.386;8.688;2022-12-07T07:02:59;5.90;54.40
24217;DHT22;12356;49.386;8.688;2022-12-07T07:05:30;5.90;54.60
24217;DHT22;12356;49.386;8.688;2022-12-07T07:08:00;5.90;54.90
24217;DHT22;12356;49.386;8.688;2022-12-07T07:10:31;5.90;55.20
24217;DHT22;12356;49.386;8.688;2022-12-07T07:13:02;5.90;54.90
24217;DHT22;12356;49.386;8.688;2022-12-07T07:15:33;6.00;55.20
24217;DHT22;12356;49.386;8.688;2022-12-07T07:18:04;6.00;55.00
24217;DHT22;12356;49.386;8.688;2022-12-07T07:20:35;6.10;55.00
24217;DHT22;12356;49.386;8.688;2022-12-07T07:23:06;6.10;55.10
24217;DHT22;12356;49.386;8.688;2022-12-07T07:25:37;6.10;55.50
24217;DHT22;12356;49.386;8.688;2022-12-07T07:28:08;6.10;55.50
24217;DHT22;12356;49.386;8.688;2022-12-07T07:30:38;6.00;55.60
24217;DHT22;12356;49.386;8.688;2022-12-07T07:33:09;6.10;55.50
24217;DHT22;12356;49.386;8.688;2022-12-07T07:35:40;6.10;54.50
24217;DHT22;12356;49.386;8.688;2022-12-07T07:38:10;6.00;54.20
24217;DHT22;12356;49.386;8.688;2022-12-07T07:40:41;6.10;54.30
24217;DHT22;12356;49.386;8.688;2022-12-07T07:43:12;6.10;54.30
24217;DHT22;12356;49.386;8.688;2022-12-07T07:45:42;6.10;54.80
24217;DHT22;12356;49.386;8.688;2022-12-07T07:48:14;6.10;53.70
24217;DHT22;12356;49.386;8.688;2022-12-07T07:50:44;6.00;52.60
24217;DHT22;12356;49.386;8.688;2022-12-07T07:53:15;5.90;52.00
24217;DHT22;12356;49.386;8.688;2022-12-07T07:55:53;6.00;52.40
24217;DHT22;12356;49.386;8.688;2022-12-07T07:58:24;6.10;52.90
24217;DHT22;12356;49.386;8.688;2022-12-07T08:00:54;6.10;52.90
24217;DHT22;12356;49.386;8.688;2022-12-07T08:03:25;6.20;53.10
24217;DHT22;12356;49.386;8.688;2022-12-07T08:05:55;6.10;51.40
24217;DHT22;12356;49.386;8.688;2022-12-07T08:08:26;6.10;52.00
24217;DHT22;12356;49.386;8.688;2022-12-07T08:10:57;6.20;52.50
24217;DHT22;12356;49.386;8.688;2022-12-07T08:13:30;6.20;53.00
24217;DHT22;12356;49.386;8.688;2022-12-07T08:16:06;6.20;53.00
24217;DHT22;12356;49.386;8.688;2022-12-07T08:18:39;6.20;53.10
24217;DHT22;12356;49.386;8.688;2022-12-07T08:21:13;6.20;52.30
24217;DHT22;12356;49.386;8.688;2022-12-07T08:23:43;6.20;52.70
24217;DHT22;12356;49.386;8.688;2022-12-07T08:26:15;6.20;52.30
24217;DHT22;12356;49.386;8.688;2022-12-07T08:28:46;6.20;52.10
24217;DHT22;12356;49.386;8.688;2022-12-07T08:31:17;6.10;52.30
24217;DHT22;12356;49.386;8.688;2022-12-07T08:33:49;6.10;52.00
24217;DHT22;12356;49.386;8.688;2022-12-07T08:36:20;6.10;52.50
24217;DHT22;12356;49.386;8.688;2022-12-07T08:38:52;6.10;52.90
24217;DHT22;12356;49.386;8.688;2022-12-07T08:41:22;6.10;52.30
24217;DHT22;12356;49.386;8.688;2022-12-07T08:43:53;6.10;53.50
24217;DHT22;12356;49.386;8.688;2022-12-07T08:46:34;6.10;52.70
24217;DHT22;12356;49.386;8.688;2022-12-07T08:51:37;6.10;52.90
24217;DHT22;12356;49.386;8.688;2022-12-07T08:54:12;6.10;53.10
24217;DHT22;12356;49.386;8.688;2022-12-07T08:56:44;6.10;53.40
24217;DHT22;12356;49.386;8.688;2022-12-07T08:59:17;6.10;54.80
24217;DHT22;12356;49.386;8.688;2022-12-07T09:01:48;6.10;55.60
24217;DHT22;12356;49.386;8.688;2022-12-07T09:04:18;6.10;55.30
24217;DHT22;12356;49.386;8.688;2022-12-07T09:06:50;6.00;55.20
24217;DHT22;12356;49.386;8.688;2022-12-07T09:09:21;5.90;55.70
24217;DHT22;12356;49.386;8.688;2022-12-07T09:11:52;5.90;56.40
24217;DHT22;12356;49.386;8.688;2022-12-07T09:14:23;5.90;56.30
24217;DHT22;12356;49.386;8.688;2022-12-07T09:16:53;5.90;56.60
24217;DHT22;12356;49.386;8.688;2022-12-07T09:19:24;6.00;56.70
24217;DHT22;12356;49.386;8.688;2022-12-07T09:21:55;6.00;56.20
24217;DHT22;12356;49.386;8.688;2022-12-07T09:24:25;6.10;56.30
24217;DHT22;12356;49.386;8.688;2022-12-07T09:26:57;6.00;56.50
24217;DHT22;12356;49.386;8.688;2022-12-07T09:29:27;6.00;56.80
24217;DHT22;12356;49.386;8.688;2022-12-07T09:31:58;6.10;56.80
24217;DHT22;12356;49.386;8.688;2022-12-07T09:34:31;6.10;57.30
24217;DHT22;12356;49.386;8.688;2022-12-07T09:37:02;6.10;57.20
24217;DHT22;12356;49.386;8.688;2022-12-07T09:39:34;6.10;57.70
24217;DHT22;12356;49.386;8.688;2022-12-07T09:42:05;6.10;57.60
24217;DHT22;12356;49.386;8.688;2022-12-07T09:44:36;6.10;57.90
24217;DHT22;12356;49.386;8.688;2022-12-07T09:47:09;6.20;58.10
24217;DHT22;12356;49.386;8.688;2022-12-07T09:49:40;6.20;58.00
24217;DHT22;12356;49.386;8.688;2022-12-07T09:52:20;6.10;57.00
24217;DHT22;12356;49.386;8.688;2022-12-07T09:54:51;6.10;56.80
24217;DHT22;12356;49.386;8.688;2022-12-07T09:57:30;6.10;56.80
24217;DHT22;12356;49.386;8.688;2022-12-07T10:00:09;6.10;56.10
24217;DHT22;12356;49.386;8.688;2022-12-07T10:02:44;6.10;56.60
24217;DHT22;12356;49.386;8.688;2022-12-07T10:05:34;6.10;56.50
24217;DHT22;12356;49.386;8.688;2022-12-07T10:08:16;6.20;56.30
24217;DHT22;12356;49.386;8.688;2022-12-07T10:10:51;6.20;56.10
24217;DHT22;12356;49.386;8.688;2022-12-07T10:13:35;6.20;54.80
24217;DHT22;12356;49.386;8.688;2022-12-07T10:16:21;6.20;55.50
24217;DHT22;12356;49.386;8.688;2022-12-07T10:19:27;6.20;55.60
24217;DHT22;12356;49.386;8.688;2022-12-07T10:22:14;6.30;56.20
24217;DHT22;12356;49.386;8.688;2022-12-07T10:24:47;6.30;56.20
24217;DHT22;12356;49.386;8.688;2022-12-07T10:27:19;6.30;55.30
24217;DHT22;12356;49.386;8.688;2022-12-07T10:29:51;6.40;55.40
24217;DHT22;12356;49.386;8.688;2022-12-07T10:32:34;6.40;55.40
24217;DHT22;12356;49.386;8.688;2022-12-07T10:35:38;6.40;55.80
24217;DHT22;12356;49.386;8.688;2022-12-07T10:38:16;6.40;54.80
24217;DHT22;12356;49.386;8.688;2022-12-07T10:40:47;6.40;55.60
24217;DHT22;12356;49.386;8.688;2022-12-07T10:43:18;6.40;56.10
24217;DHT22;12356;49.386;8.688;2022-12-07T10:54:17;6.70;55.50
24217;DHT22;12356;49.386;8.688;2022-12-07T10:57:01;6.60;53.70
24217;DHT22;12356;49.386;8.688;2022-12-07T11:00:03;6.60;52.70
24217;DHT22;12356;49.386;8.688;2022-12-07T11:05:48;6.50;53.30
24217;DHT22;12356;49.386;8.688;2022-12-07T11:19:16;6.60;53.30
24217;DHT22;12356;49.386;8.688;2022-12-07T11:22:03;6.60;53.10
24217;DHT22;12356;49.386;8.688;2022-12-07T11:25:00;6.60;53.10
24217;DHT22;12356;49.386;8.688;2022-12-07T11:31:21;6.70;53.70
24217;DHT22;12356;49.386;8.688;2022-12-07T11:36:53;6.70;54.50
24217;DHT22;12356;49.386;8.688;2022-12-07T11:39:36;6.70;54.50
24217;DHT22;12356;49.386;8.688;2022-12-07T11:42:22;6.70;54.70
24217;DHT22;12356;49.386;8.688;2022-12-07T11:45:20;6.80;53.40
24217;DHT22;12356;49.386;8.688;2022-12-07T11:52:59;6.90;53.10
24217;DHT22;12356;49.386;8.688;2022-12-07T11:58:49;6.80;52.00
24217;DHT22;12356;49.386;8.688;2022-12-07T12:06:43;6.80;53.00
24217;DHT22;12356;49.386;8.688;2022-12-07T12:20:43;6.90;53.30
24217;DHT22;12356;49.386;8.688;2022-12-07T12:26:01;6.90;52.70
24217;DHT22;12356;49.386;8.688;2022-12-07T12:28:42;7.00;53.80
24217;DHT22;12356;49.386;8.688;2022-12-07T12:33:53;6.90;53.10
24217;DHT22;12356;49.386;8.688;2022-12-07T12:36:26;7.00;53.10
24217;DHT22;12356;49.386;8.688;2022-12-07T12:39:17;7.00;53.60
24217;DHT22;12356;49.386;8.688;2022-12-07T12:46:54;7.10;50.50
24217;DHT22;12356;49.386;8.688;2022-12-07T12:51:59;7.20;49.70
24217;DHT22;12356;49.386;8.688;2022-12-07T12:54:32;7.20;50.10
24217;DHT22;12356;49.386;8.688;2022-12-07T13:02:35;7.20;50.50
24217;DHT22;12356;49.386;8.688;2022-12-07T13:16:38;7.40;50.40
24217;DHT22;12356;49.386;8.688;2022-12-07T13:18:45;7.30;49.30
24217;DHT22;12356;49.386;8.688;2022-12-07T13:29:19;7.40;48.80
24217;DHT22;12356;49.386;8.688;2022-12-07T13:31:55;7.30;49.30
24217;DHT22;12356;49.386;8.688;2022-12-07T13:37:28;7.40;49.10
24217;DHT22;12356;49.386;8.688;2022-12-07T13:40:12;7.30;44.60
24217;DHT22;12356;49.386;8.688;2022-12-07T13:42:47;7.30;42.20
24217;DHT22;12356;49.386;8.688;2022-12-07T13:45:24;7.40;42.00
24217;DHT22;12356;49.386;8.688;2022-12-07T13:48:32;7.50;41.50
24217;DHT22;12356;49.386;8.688;2022-12-07T13:51:04;7.40;41.50
24217;DHT22;12356;49.386;8.688;2022-12-07T13:53:47;7.40;40.20
24217;DHT22;12356;49.386;8.688;2022-12-07T13:56:17;7.50;40.00
24217;DHT22;12356;49.386;8.688;2022-12-07T13:58:48;7.40;40.50
24217;DHT22;12356;49.386;8.688;2022-12-07T14:01:19;7.40;41.60
24217;DHT22;12356;49.386;8.688;2022-12-07T14:03:50;7.40;43.20
24217;DHT22;12356;49.386;8.688;2022-12-07T14:06:24;7.40;43.70
24217;DHT22;12356;49.386;8.688;2022-12-07T14:09:20;7.30;43.10
24217;DHT22;12356;49.386;8.688;2022-12-07T14:11:53;7.30;43.80
24217;DHT22;12356;49.386;8.688;2022-12-07T14:14:29;7.20;45.20
24217;DHT22;12356;49.386;8.688;2022-12-07T14:17:16;7.30;45.60
24217;DHT22;12356;49.386;8.688;2022-12-07T14:19:56;7.40;46.10
24217;DHT22;12356;49.386;8.688;2022-12-07T14:22:34;7.30;46.40
24217;DHT22;12356;49.386;8.688;2022-12-07T14:25:17;7.30;47.50
24217;DHT22;12356;49.386;8.688;2022-12-07T14:27:58;7.30;47.70
24217;DHT22;12356;49.386;8.688;2022-12-07T14:30:30;7.30;47.00
24217;DHT22;12356;49.386;8.688;2022-12-07T14:33:03;7.30;46.80
24217;DHT22;12356;49.386;8.688;2022-12-07T14:35:34;7.30;47.00
24217;DHT22;12356;49.386;8.688;2022-12-07T14:38:04;7.30;46.50
24217;DHT22;12356;49.386;8.688;2022-12-07T14:40:35;7.30;47.60
24217;DHT22;12356;49.386;8.688;2022-12-07T14:43:10;7.40;47.40
24217;DHT22;12356;49.386;8.688;2022-12-07T14:45:42;7.30;46.60
24217;DHT22;12356;49.386;8.688;2022-12-07T14:48:14;7.30;46.40
24217;DHT22;12356;49.386;8.688;2022-12-07T14:50:49;7.20;46.40
24217;DHT22;12356;49.386;8.688;2022-12-07T14:53:28;7.20;46.40
24217;DHT22;12356;49.386;8.688;2022-12-07T14:55:59;7.20;46.90
24217;DHT22;12356;49.386;8.688;2022-12-07T14:58:30;7.20;47.00
24217;DHT22;12356;49.386;8.688;2022-12-07T15:01:01;7.20;46.90
24217;DHT22;12356;49.386;8.688;2022-12-07T15:03:32;7.20;47.60
24217;DHT22;12356;49.386;8.688;2022-12-07T15:06:05;7.30;47.90
24217;DHT22;12356;49.386;8.688;2022-12-07T15:08:35;7.20;47.60
24217;DHT22;12356;49.386;8.688;2022-12-07T15:11:08;7.20;47.50
24217;DHT22;12356;49.386;8.688;2022-12-07T15:13:39;7.20;47.30
24217;DHT22;12356;49.386;8.688;2022-12-07T15:16:29;7.20;47.40
24217;DHT22;12356;49.386;8.688;2022-12-07T15:18:59;7.10;47.60
24217;DHT22;12356;49.386;8.688;2022-12-07T15:21:30;7.10;48.20
24217;DHT22;12356;49.386;8.688;2022-12-07T15:24:00;7.10;49.10
24217;DHT22;12356;49.386;8.688;2022-12-07T15:26:31;7.10;48.70
24217;DHT22;12356;49.386;8.688;2022-12-07T15:29:02;7.10;48.70
24217;DHT22;12356;49.386;8.688;2022-12-07T15:31:34;7.10;49.60
24217;DHT22;12356;49.386;8.688;2022-12-07T15:34:04;7.20;50.30
24217;DHT22;12356;49.386;8.688;2022-12-07T15:36:35;7.20;50.40
24217;DHT22;12356;49.386;8.688;2022-12-07T15:39:06;7.20;50.10
24217;DHT22;12356;49.386;8.688;2022-12-07T15:41:37;7.20;50.10
24217;DHT22;12356;49.386;8.688;2022-12-07T15:44:11;7.10;49.60
24217;DHT22;12356;49.386;8.688;2022-12-07T15:47:00;7.10;50.70
24217;DHT22;12356;49.386;8.688;2022-12-07T15:49:31;7.10;50.20
24217;DHT22;12356;49.386;8.688;2022-12-07T15:52:02;7.10;50.10
24217;DHT22;12356;49.386;8.688;2022-12-07T15:54:32;7.00;50.60
24217;DHT22;12356;49.386;8.688;2022-12-07T15:57:03;7.00;50.60
24217;DHT22;12356;49.386;8.688;2022-12-07T15:59:34;7.00;50.40
24217;DHT22;12356;49.386;8.688;2022-12-07T16:02:05;7.00;48.70
24217;DHT22;12356;49.386;8.688;2022-12-07T16:04:36;7.00;48.00
24217;DHT22;12356;49.386;8.688;2022-12-07T16:07:07;6.90;46.40
24217;DHT22;12356;49.386;8.688;2022-12-07T16:09:38;6.90;45.10
24217;DHT22;12356;49.386;8.688;2022-12-07T16:12:09;7.00;45.50
24217;DHT22;12356;49.386;8.688;2022-12-07T16:14:40;7.00;44.50
24217;DHT22;12356;49.386;8.688;2022-12-07T16:17:11;7.00;45.70
24217;DHT22;12356;49.386;8.688;2022-12-07T16:19:42;6.90;45.90
24217;DHT22;12356;49.386;8.688;2022-12-07T16:22:13;7.00;47.40
24217;DHT22;12356;49.386;8.688;2022-12-07T16:24:43;7.00;47.70
24217;DHT22;12356;49.386;8.688;2022-12-07T16:27:14;6.90;48.10
24217;DHT22;12356;49.386;8.688;2022-12-07T16:29:45;6.90;48.10
24217;DHT22;12356;49.386;8.688;2022-12-07T16:32:15;6.90;48.50
24217;DHT22;12356;49.386;8.688;2022-12-07T16:34:46;6.90;49.40
24217;DHT22;12356;49.386;8.688;2022-12-07T16:37:16;6.90;49.80
24217;DHT22;12356;49.386;8.688;2022-12-07T16:39:47;6.80;49.70
24217;DHT22;12356;49.386;8.688;2022-12-07T16:42:18;6.80;49.70
24217;DHT22;12356;49.386;8.688;2022-12-07T16:44:48;6.80;48.80
24217;DHT22;12356;49.386;8.688;2022-12-07T16:47:19;6.80;48.50
24217;DHT22;12356;49.386;8.688;2022-12-07T16:49:50;6.80;48.20
24217;DHT22;12356;49.386;8.688;2022-12-07T16:52:21;6.80;48.60
24217;DHT22;12356;49.386;8.688;2022-12-07T16:54:52;6.70;49.00
24217;DHT22;12356;49.386;8.688;2022-12-07T16:57:22;6.80;49.10
24217;DHT22;12356;49.386;8.688;2022-12-07T16:59:53;6.80;49.10
24217;DHT22;12356;49.386;8.688;2022-12-07T17:02:24;6.80;48.30
24217;DHT22;12356;49.386;8.688;2022-12-07T17:04:54;6.80;48.10
24217;DHT22;12356;49.386;8.688;2022-12-07T17:07:25;6.80;47.70
24217;DHT22;12356;49.386;8.688;2022-12-07T17:09:56;6.80;47.70
24217;DHT22;12356;49.386;8.688;2022-12-07T17:12:26;6.70;47.70
24217;DHT22;12356;49.386;8.688;2022-12-07T17:14:57;6.70;47.70
24217;DHT22;12356;49.386;8.688;2022-12-07T17:17:57;6.70;47.30
24217;DHT22;12356;49.386;8.688;2022-12-07T17:20:28;6.70;46.60
24217;DHT22;12356;49.386;8.688;2022-12-07T17:22:58;6.60;46.60
24217;DHT22;12356;49.386;8.688;2022-12-07T17:25:29;6.60;47.10
24217;DHT22;12356;49.386;8.688;2022-12-07T17:28:00;6.70;46.90
24217;DHT22;12356;49.386;8.688;2022-12-07T17:30:30;6.70;47.40
24217;DHT22;12356;49.386;8.688;2022-12-07T17:33:01;6.70;47.00
24217;DHT22;12356;49.386;8.688;2022-12-07T17:35:32;6.70;47.10
24217;DHT22;12356;49.386;8.688;2022-12-07T17:38:02;6.60;46.90
24217;DHT22;12356;49.386;8.688;2022-12-07T17:40:33;6.60;46.90
24217;DHT22;12356;49.386;8.688;2022-12-07T17:43:03;6.60;47.90
24217;DHT22;12356;49.386;8.688;2022-12-07T17:45:36;6.60;46.80
24217;DHT22;12356;49.386;8.688;2022-12-07T17:48:07;6.60;46.90
24217;DHT22;12356;49.386;8.688;2022-12-07T17:50:39;6.60;46.10
24217;DHT22;12356;49.386;8.688;2022-12-07T17:53:28;6.60;46.80
24217;DHT22;12356;49.386;8.688;2022-12-07T17:55:59;6.60;46.80
24217;DHT22;12356;49.386;8.688;2022-12-07T17:58:30;6.60;47.40
24217;DHT22;12356;49.386;8.688;2022-12-07T18:01:01;6.50;46.30
24217;DHT22;12356;49.386;8.688;2022-12-07T18:03:32;6.50;45.90
24217;DHT22;12356;49.386;8.688;2022-12-07T18:06:03;6.60;46.30
24217;DHT22;12356;49.386;8.688;2022-12-07T18:08:35;6.60;46.50
24217;DHT22;12356;49.386;8.688;2022-12-07T18:11:08;6.70;46.60
24217;DHT22;12356;49.386;8.688;2022-12-07T18:13:38;6.70;46.90
24217;DHT22;12356;49.386;8.688;2022-12-07T18:16:13;6.70;46.50
24217;DHT22;12356;49.386;8.688;2022-12-07T18:18:45;6.60;46.40
24217;DHT22;12356;49.386;8.688;2022-12-07T18:21:19;6.60;46.40
24217;DHT22;12356;49.386;8.688;2022-12-07T18:23:53;6.60;46.20
24217;DHT22;12356;49.386;8.688;2022-12-07T18:26:25;6.50;45.80
24217;DHT22;12356;49.386;8.688;2022-12-07T18:28:58;6.50;45.30
24217;DHT22;12356;49.386;8.688;2022-12-07T18:31:28;6.50;45.00
24217;DHT22;12356;49.386;8.688;2022-12-07T18:34:01;6.50;45.10
24217;DHT22;12356;49.386;8.688;2022-12-07T18:36:33;6.50;44.80